Time;durP1;ratioP1;P1;durP2;ratioP2;P2;SDS_P1;SDS_P2;PMS_P1;PMS_P2;Temp;Humidity;BMP_temperature;BMP_pressure;BME280_temperature;BME280_humidity;BME280_pressure;Samples;Min_cycle;Max_cycle;Signal;HPM_P1;HPM_P2
2021/08/20 00:00:49;;;;;;;22.70;21.40;;;19.10;83.50;;;;;;5086440;28;20481;-70
2021/08/20 00:03:16;;;;;;;22.50;21.20;;;19.10;83.60;;;;;;5085611;28;20830;-70
2021/08/20 00:05:43;;;;;;;23.47;22.17;;;19.10;83.60;;;;;;5086144;28;20559;-70
2021/08/20 00:08:10;;;;;;;22.40;21.20;;;19.10;83.50;;;;;;5085787;28;20669;-70
2021/08/20 00:10:36;;;;;;;21.50;20.50;;;19.10;83.40;;;;;;5086785;28;20456;-70
2021/08/20 00:13:04;;;;;;;22.40;21.20;;;19.10;83.20;;;;;;5085750;28;20453;-70
2021/08/20 00:15:32;;;;;;;23.03;21.70;;;19.10;83.20;;;;;;5087347;28;20457;-69
2021/08/20 00:17:59;;;;;;;22.77;21.47;;;19.10;82.90;;;;;;5081476;28;20569;-70
2021/08/20 00:20:27;;;;;;;23.30;21.90;;;19.10;82.30;;;;;;5083402;28;20477;-70
2021/08/20 00:22:53;;;;;;;22.97;21.80;;;19.10;82.30;;;;;;5084624;28;20461;-70
2021/08/20 00:25:20;;;;;;;22.67;21.47;;;19.10;82.30;;;;;;5083603;28;20474;-70
2021/08/20 00:27:48;;;;;;;22.30;21.20;;;19.10;82.30;;;;;;5085150;28;20472;-70
2021/08/20 00:30:15;;;;;;;23.37;22.10;;;19.10;82.20;;;;;;5084860;28;20982;-70
2021/08/20 00:32:43;;;;;;;22.70;21.50;;;19.10;82.10;;;;;;5082077;28;20487;-70
2021/08/20 00:35:10;;;;;;;23.30;22.10;;;19.10;82.20;;;;;;5086861;28;20980;-70
2021/08/20 00:37:37;;;;;;;22.80;21.60;;;19.10;82.50;;;;;;5086047;28;20507;-70
2021/08/20 00:40:06;;;;;;;23.17;21.80;;;19.10;82.70;;;;;;5082017;28;21933;-70
2021/08/20 00:42:34;;;;;;;23.53;22.13;;;19.00;82.90;;;;;;5083925;28;20540;-69
2021/08/20 00:45:00;;;;;;;22.80;21.60;;;19.00;83.00;;;;;;5079362;28;20839;-70
2021/08/20 00:47:28;;;;;;;22.87;21.67;;;19.00;83.40;;;;;;5079139;28;20480;-70
2021/08/20 00:49:56;;;;;;;22.63;21.40;;;19.00;83.30;;;;;;5082737;28;20463;-69
2021/08/20 00:52:24;;;;;;;22.00;20.90;;;19.00;83.00;;;;;;5085332;28;20487;-70
2021/08/20 00:54:51;;;;;;;22.57;21.47;;;19.00;82.90;;;;;;5079835;28;20481;-70
2021/08/20 00:57:18;;;;;;;22.10;21.00;;;19.00;82.90;;;;;;5085145;28;20484;-70
2021/08/20 00:59:46;;;;;;;22.53;21.23;;;19.00;82.90;;;;;;5086577;28;20457;-70
2021/08/20 01:02:13;;;;;;;22.40;21.20;;;19.00;82.90;;;;;;5083661;28;20481;-70
2021/08/20 01:04:40;;;;;;;22.60;21.50;;;19.00;82.90;;;;;;5085154;28;20489;-70
2021/08/20 01:07:08;;;;;;;23.10;21.80;;;19.00;83.10;;;;;;5084601;28;20473;-70
2021/08/20 01:09:37;;;;;;;22.67;21.47;;;19.00;83.10;;;;;;5082781;28;20993;-70
2021/08/20 01:12:04;;;;;;;22.40;21.30;;;19.00;83.20;;;;;;5084580;28;20460;-70
2021/08/20 01:14:33;;;;;;;22.50;21.30;;;18.90;83.10;;;;;;5086612;28;20536;-71
2021/08/20 01:17:01;;;;;;;22.60;21.40;;;18.90;83.50;;;;;;5077844;28;20449;-70
2021/08/20 01:19:28;;;;;;;22.50;21.40;;;18.90;83.70;;;;;;5083485;28;20536;-70
2021/08/20 01:21:55;;;;;;;22.67;21.47;;;18.80;83.70;;;;;;5085541;28;20472;-70
2021/08/20 01:24:23;;;;;;;22.90;21.60;;;18.80;83.80;;;;;;5085075;28;20473;-70
2021/08/20 01:26:52;;;;;;;22.83;21.63;;;18.80;83.50;;;;;;5075318;28;20453;-70
2021/08/20 01:29:21;;;;;;;23.10;21.60;;;18.70;83.40;;;;;;5086984;28;20544;-70
2021/08/20 01:31:49;;;;;;;23.03;21.70;;;18.70;83.40;;;;;;5084113;28;20449;-70
2021/08/20 01:34:16;;;;;;;22.70;21.50;;;18.70;83.60;;;;;;5081819;28;20461;-70
2021/08/20 01:36:43;;;;;;;23.00;21.60;;;18.70;83.60;;;;;;5085913;28;21236;-70
2021/08/20 01:39:10;;;;;;;22.23;21.13;;;18.80;83.20;;;;;;5080982;28;20568;-70
2021/08/20 01:41:37;;;;;;;22.73;21.53;;;18.80;83.10;;;;;;5081064;28;20481;-70
2021/08/20 01:44:06;;;;;;;22.70;21.60;;;18.80;83.20;;;;;;5082095;28;20477;-70
2021/08/20 01:46:33;;;;;;;22.97;21.77;;;18.80;83.00;;;;;;5085311;28;20489;-70
2021/08/20 01:49:03;;;;;;;22.73;21.50;;;18.70;82.90;;;;;;5086409;28;20492;-70
2021/08/20 01:51:30;;;;;;;22.00;21.00;;;18.80;82.80;;;;;;5081118;28;20548;-70
2021/08/20 01:53:58;;;;;;;22.20;21.00;;;18.80;82.90;;;;;;5084662;28;20959;-70
2021/08/20 01:56:28;;;;;;;22.43;21.03;;;18.80;83.00;;;;;;5081401;28;20450;-70
2021/08/20 01:58:57;;;;;;;21.57;20.47;;;18.80;82.90;;;;;;5079898;28;20500;-71
2021/08/20 02:01:25;;;;;;;22.67;21.37;;;18.90;82.50;;;;;;5079353;28;20484;-71
2021/08/20 02:03:52;;;;;;;22.00;20.80;;;18.90;82.40;;;;;;5085866;28;20839;-71
2021/08/20 02:06:20;;;;;;;22.33;21.03;;;18.80;82.50;;;;;;5079756;28;20457;-71
2021/08/20 02:08:47;;;;;;;22.17;21.07;;;18.80;82.70;;;;;;5076372;28;20519;-71
2021/08/20 02:11:14;;;;;;;26.33;24.50;;;18.80;82.80;;;;;;5082480;28;20448;-71
2021/08/20 02:13:41;;;;;;;22.87;21.57;;;18.80;82.80;;;;;;5084974;28;20963;-70
2021/08/20 02:16:08;;;;;;;22.60;21.40;;;18.80;82.90;;;;;;5076137;28;20457;-70
2021/08/20 02:18:37;;;;;;;21.87;20.77;;;18.90;83.00;;;;;;5081084;28;20535;-70
2021/08/20 02:21:04;;;;;;;22.03;20.83;;;18.80;83.30;;;;;;5082081;28;21025;-70
2021/08/20 02:23:32;;;;;;;22.40;21.20;;;18.90;83.30;;;;;;5087199;28;20449;-70
2021/08/20 02:25:59;;;;;;;24.77;23.47;;;18.80;83.40;;;;;;5081568;28;20498;-70
2021/08/20 02:28:26;;;;;;;22.23;21.13;;;18.80;83.40;;;;;;5088372;28;20484;-70
2021/08/20 02:30:53;;;;;;;22.40;21.20;;;18.80;83.40;;;;;;5086827;28;20449;-70
2021/08/20 02:33:20;;;;;;;22.53;21.30;;;18.80;83.60;;;;;;5090048;28;20544;-70
2021/08/20 02:35:49;;;;;;;22.83;21.43;;;18.80;83.60;;;;;;5086660;28;20551;-70
2021/08/20 02:38:15;;;;;;;22.70;21.40;;;18.80;83.60;;;;;;5089443;28;21057;-70
2021/08/20 02:40:42;;;;;;;22.83;21.43;;;18.80;83.60;;;;;;5087294;28;20549;-71
2021/08/20 02:43:09;;;;;;;22.90;21.63;;;18.80;83.60;;;;;;5088629;28;21257;-71
2021/08/20 02:45:36;;;;;;;22.40;21.20;;;18.80;83.60;;;;;;5076804;28;20480;-71
2021/08/20 02:48:03;;;;;;;22.40;21.07;;;18.80;83.60;;;;;;5084607;28;20481;-70
2021/08/20 02:50:30;;;;;;;22.40;21.10;;;18.80;83.20;;;;;;5087602;28;20843;-70
2021/08/20 02:52:58;;;;;;;21.90;20.80;;;18.80;83.10;;;;;;5086887;28;20445;-70
2021/08/20 02:55:26;;;;;;;22.50;21.30;;;18.70;83.20;;;;;;5085929;28;20457;-70
2021/08/20 02:57:53;;;;;;;22.17;20.97;;;18.70;83.30;;;;;;5085990;28;20480;-70
2021/08/20 03:00:20;;;;;;;21.97;20.87;;;18.80;83.30;;;;;;5087915;28;21941;-70
2021/08/20 03:02:46;;;;;;;22.03;20.83;;;18.80;83.30;;;;;;5087303;28;20477;-70
2021/08/20 03:05:13;;;;;;;22.40;20.90;;;18.70;83.30;;;;;;5083900;28;20466;-70
2021/08/20 03:07:41;;;;;;;22.70;21.40;;;18.80;83.30;;;;;;5085223;28;20478;-70
2021/08/20 03:10:11;;;;;;;25.93;24.53;;;18.70;83.30;;;;;;5087275;28;20468;-70
2021/08/20 03:12:37;;;;;;;24.30;22.90;;;18.80;83.20;;;;;;5087012;28;20978;-69
2021/08/20 03:15:05;;;;;;;21.97;20.77;;;18.80;83.20;;;;;;5085481;28;20970;-70
2021/08/20 03:17:32;;;;;;;27.10;25.80;;;18.80;83.20;;;;;;5082194;28;20933;-71
2021/08/20 03:19:59;;;;;;;25.33;23.93;;;18.70;83.40;;;;;;5085200;28;20461;-73
2021/08/20 03:22:26;;;;;;;23.90;22.60;;;18.70;83.50;;;;;;5086942;28;20472;-70
2021/08/20 03:24:53;;;;;;;24.10;22.60;;;18.70;83.70;;;;;;5081952;28;21015;-71
2021/08/20 03:27:21;;;;;;;28.23;26.83;;;18.70;83.60;;;;;;5085724;28;20504;-71
2021/08/20 03:29:49;;;;;;;22.43;21.10;;;18.70;83.50;;;;;;5089270;28;21264;-71
2021/08/20 03:32:16;;;;;;;23.40;22.20;;;18.80;83.40;;;;;;5087455;28;21055;-71
2021/08/20 03:34:43;;;;;;;26.23;24.90;;;18.80;83.30;;;;;;5084410;28;20462;-71
2021/08/20 03:37:09;;;;;;;23.43;22.13;;;18.80;83.50;;;;;;5087160;28;21113;-71
2021/08/20 03:39:36;;;;;;;27.37;25.97;;;18.70;83.60;;;;;;5082484;28;20552;-71
2021/08/20 03:42:03;;;;;;;25.63;24.33;;;18.70;83.90;;;;;;5083395;28;20512;-71
2021/08/20 03:44:32;;;;;;;23.10;21.80;;;18.70;84.00;;;;;;5085884;28;21004;-71
2021/08/20 03:46:59;;;;;;;27.17;25.60;;;18.70;84.10;;;;;;5081289;28;20469;-71
2021/08/20 03:49:25;;;;;;;24.17;22.87;;;18.70;84.40;;;;;;5082829;28;20462;-71
2021/08/20 03:51:52;;;;;;;24.37;23.07;;;18.70;84.20;;;;;;5086561;28;20950;-71
2021/08/20 03:54:19;;;;;;;22.67;21.37;;;18.80;84.00;;;;;;5081693;28;20449;-71
2021/08/20 03:56:46;;;;;;;24.17;22.77;;;18.80;83.90;;;;;;5080406;28;20544;-71
2021/08/20 03:59:13;;;;;;;22.77;21.47;;;18.80;83.90;;;;;;5082420;28;20540;-71
2021/08/20 04:01:41;;;;;;;23.20;22.00;;;18.70;84.00;;;;;;5087293;28;20837;-71
2021/08/20 04:04:08;;;;;;;22.87;21.53;;;18.70;84.00;;;;;;5080049;28;20465;-71
2021/08/20 04:06:35;;;;;;;23.17;21.87;;;18.70;84.20;;;;;;5085547;28;20459;-71
2021/08/20 04:09:02;;;;;;;23.83;22.53;;;18.70;84.20;;;;;;5086640;28;20491;-71
2021/08/20 04:11:28;;;;;;;24.80;23.30;;;18.70;84.10;;;;;;5081760;28;20857;-71
2021/08/20 04:13:56;;;;;;;23.37;22.17;;;18.70;84.10;;;;;;5086747;28;20826;-71
2021/08/20 04:16:23;;;;;;;24.07;22.67;;;18.70;84.10;;;;;;5082331;28;20454;-71
2021/08/20 04:18:51;;;;;;;23.80;22.50;;;18.70;84.10;;;;;;5087479;28;20842;-71
2021/08/20 04:21:19;;;;;;;23.57;22.07;;;18.70;84.20;;;;;;5084375;28;20574;-71
2021/08/20 04:23:46;;;;;;;26.20;24.80;;;18.70;84.30;;;;;;5085129;28;20456;-70
2021/08/20 04:26:13;;;;;;;22.93;21.73;;;18.70;84.20;;;;;;5086450;28;20819;-70
2021/08/20 04:28:40;;;;;;;23.70;22.20;;;18.60;84.30;;;;;;5087300;28;20576;-70
2021/08/20 04:31:07;;;;;;;25.03;23.73;;;18.60;84.30;;;;;;5084330;28;20458;-71
2021/08/20 04:33:34;;;;;;;23.60;22.33;;;18.60;84.20;;;;;;5081676;28;20489;-70
2021/08/20 04:36:02;;;;;;;24.10;22.80;;;18.60;84.10;;;;;;5081744;28;20465;-70
2021/08/20 04:38:29;;;;;;;25.53;24.13;;;18.60;84.10;;;;;;5084922;28;20634;-71
2021/08/20 04:40:56;;;;;;;24.57;23.27;;;18.60;84.30;;;;;;5084455;28;20629;-72
2021/08/20 04:43:23;;;;;;;24.70;23.30;;;18.60;84.30;;;;;;5078823;28;20509;-71
2021/08/20 04:45:50;;;;;;;25.23;23.83;;;18.60;84.30;;;;;;5074289;28;20971;-71
2021/08/20 04:48:17;;;;;;;24.03;22.83;;;18.60;84.50;;;;;;5077704;28;20561;-71
2021/08/20 04:50:44;;;;;;;24.57;23.27;;;18.60;84.30;;;;;;5078801;28;20466;-71
2021/08/20 04:53:12;;;;;;;24.03;22.73;;;18.60;84.10;;;;;;5082799;28;20552;-71
2021/08/20 04:55:39;;;;;;;26.07;24.67;;;18.60;83.90;;;;;;5086992;28;20493;-70
2021/08/20 04:58:06;;;;;;;23.60;22.30;;;18.60;83.70;;;;;;5082710;28;20469;-69
2021/08/20 05:00:33;;;;;;;25.60;24.20;;;18.70;83.80;;;;;;5082078;28;20462;-70
2021/08/20 05:03:00;;;;;;;24.00;22.60;;;18.70;83.70;;;;;;5084363;28;20575;-70
2021/08/20 05:05:29;;;;;;;26.00;24.50;;;18.70;83.60;;;;;;5086505;28;21018;-72
2021/08/20 05:07:56;;;;;;;24.93;23.53;;;18.80;83.50;;;;;;5085922;28;20550;-71
2021/08/20 05:10:24;;;;;;;24.60;23.20;;;18.70;83.70;;;;;;5070867;28;20465;-70
2021/08/20 05:12:51;;;;;;;23.80;22.60;;;18.80;83.70;;;;;;5084336;28;20449;-70
2021/08/20 05:15:18;;;;;;;24.60;23.23;;;18.80;83.50;;;;;;5083801;28;20461;-71
2021/08/20 05:17:45;;;;;;;24.83;23.43;;;18.80;83.50;;;;;;5084003;28;20477;-71
2021/08/20 05:20:13;;;;;;;24.30;22.90;;;18.90;83.40;;;;;;5084060;28;20467;-70
2021/08/20 05:22:47;;;;;;;25.30;23.90;;;18.90;83.20;;;;;;5082667;28;20481;-71
2021/08/20 05:25:15;;;;;;;27.23;25.43;;;18.90;83.40;;;;;;5077098;28;20457;-71
2021/08/20 05:27:43;;;;;;;24.07;22.57;;;19.00;83.20;;;;;;5082167;28;20561;-71
2021/08/20 05:30:11;;;;;;;23.60;22.30;;;19.00;83.20;;;;;;5078680;28;20456;-71
2021/08/20 05:32:38;;;;;;;26.03;24.37;;;19.00;83.20;;;;;;5086448;28;20532;-69
2021/08/20 05:35:07;;;;;;;24.50;23.03;;;19.10;83.00;;;;;;5083576;28;20449;-70
2021/08/20 05:37:34;;;;;;;24.43;22.83;;;19.20;82.90;;;;;;5076460;28;21050;-71
2021/08/20 05:40:01;;;;;;;24.17;22.70;;;19.20;83.00;;;;;;5082226;28;20474;-70
2021/08/20 05:42:28;;;;;;;24.30;23.00;;;19.30;82.80;;;;;;5082975;28;20817;-72
2021/08/20 05:44:57;;;;;;;26.53;25.10;;;19.30;82.60;;;;;;5081691;28;20464;-72
2021/08/20 05:47:24;;;;;;;25.70;24.30;;;19.30;82.30;;;;;;5079143;28;20472;-72
2021/08/20 05:49:51;;;;;;;25.97;24.57;;;19.30;82.40;;;;;;5082145;28;20987;-71
2021/08/20 05:52:18;;;;;;;24.13;22.53;;;19.40;82.20;;;;;;5083538;28;20467;-71
2021/08/20 05:54:45;;;;;;;23.73;22.33;;;19.40;82.20;;;;;;5080480;28;21026;-72
2021/08/20 05:57:12;;;;;;;24.20;23.00;;;19.40;82.20;;;;;;5082128;28;20483;-70
2021/08/20 05:59:39;;;;;;;27.10;25.70;;;19.40;82.00;;;;;;5083521;28;20461;-70
2021/08/20 06:02:07;;;;;;;24.90;23.50;;;19.50;81.90;;;;;;5084053;28;20453;-70
2021/08/20 06:04:34;;;;;;;24.00;22.70;;;19.60;81.40;;;;;;5084405;28;20490;-70
2021/08/20 06:07:01;;;;;;;25.50;24.07;;;19.60;81.10;;;;;;5085202;28;20468;-70
2021/08/20 06:09:28;;;;;;;27.70;26.20;;;19.70;80.80;;;;;;5086740;28;20465;-69
2021/08/20 06:11:55;;;;;;;26.00;24.40;;;19.90;80.70;;;;;;5085327;28;20581;-70
2021/08/20 06:14:22;;;;;;;26.73;25.17;;;19.90;80.10;;;;;;5082193;28;20468;-71
2021/08/20 06:16:54;;;;;;;27.33;25.43;;;20.00;80.10;;;;;;5083997;28;20547;-72
2021/08/20 06:19:22;;;;;;;26.80;25.20;;;20.10;79.80;;;;;;5087751;28;20444;-75
2021/08/20 06:21:49;;;;;;;27.57;24.73;;;20.20;79.40;;;;;;5086970;28;21234;-73
2021/08/20 06:24:16;;;;;;;29.70;27.83;;;20.30;79.10;;;;;;5080487;28;20492;-70
2021/08/20 06:26:45;;;;;;;26.50;24.90;;;20.40;78.80;;;;;;5086415;28;20543;-69
2021/08/20 06:29:13;;;;;;;26.43;24.70;;;20.40;78.60;;;;;;5088227;28;21021;-69
2021/08/20 06:31:41;;;;;;;25.13;23.83;;;20.50;78.40;;;;;;5088698;28;20457;-70
2021/08/20 06:34:58;;;;;;;;;;;;;;;;;;;;;
2021/08/20 06:40:42;;;;;;;26.33;24.90;;;21.00;77.30;;;;;;5086319;28;20445;-70
2021/08/20 06:43:18;;;;;;;28.27;26.53;;;21.10;76.80;;;;;;5086000;28;20473;-72
2021/08/20 06:46:09;;;;;;;27.70;26.20;;;21.20;76.20;;;;;;5085080;28;20883;-72
2021/08/20 06:48:36;;;;;;;29.17;27.27;;;21.30;76.00;;;;;;5087608;28;20560;-72
2021/08/20 06:51:04;;;;;;;27.43;25.80;;;21.40;75.60;;;;;;5081544;28;20466;-70
2021/08/20 06:53:31;;;;;;;27.13;25.53;;;21.50;75.70;;;;;;5081746;28;20459;-70
2021/08/20 06:55:58;;;;;;;27.73;26.00;;;21.70;75.40;;;;;;5076359;28;20466;-70
2021/08/20 06:58:25;;;;;;;27.43;25.83;;;21.90;74.50;;;;;;5084338;28;20480;-69
2021/08/20 07:00:52;;;;;;;28.13;26.40;;;22.10;73.50;;;;;;5082102;28;20462;-70
2021/08/20 07:03:19;;;;;;;30.20;28.17;;;22.10;73.10;;;;;;5080230;28;20485;-70
2021/08/20 07:05:46;;;;;;;29.10;27.27;;;22.10;72.80;;;;;;5087232;28;20960;-70
2021/08/20 07:08:14;;;;;;;28.13;26.43;;;22.20;73.00;;;;;;5087636;28;20485;-70
2021/08/20 07:10:41;;;;;;;28.97;27.27;;;22.20;72.50;;;;;;5083078;28;20453;-73
2021/08/20 07:13:08;;;;;;;30.43;28.73;;;22.30;72.40;;;;;;5087407;28;20456;-71
2021/08/20 07:15:35;;;;;;;29.60;27.73;;;22.40;72.70;;;;;;5086834;28;20464;-70
2021/08/20 07:18:02;;;;;;;28.23;26.63;;;22.50;72.30;;;;;;5086423;28;20481;-70
2021/08/20 07:20:29;;;;;;;29.43;27.70;;;22.50;71.90;;;;;;5082216;28;20459;-70
2021/08/20 07:22:56;;;;;;;33.23;31.13;;;22.40;72.20;;;;;;5083097;28;20563;-71
2021/08/20 07:25:24;;;;;;;33.57;31.37;;;22.40;71.70;;;;;;5087457;28;20843;-72
2021/08/20 07:27:51;;;;;;;32.40;30.40;;;22.00;72.60;;;;;;5087274;28;21225;-72
2021/08/20 07:30:18;;;;;;;30.13;28.33;;;22.00;72.90;;;;;;5081281;28;20461;-72
2021/08/20 07:32:46;;;;;;;32.63;30.53;;;21.90;73.30;;;;;;5078470;28;20457;-75
2021/08/20 07:35:13;;;;;;;32.77;30.57;;;21.90;73.90;;;;;;5084177;28;20452;-74
2021/08/20 07:37:39;;;;;;;32.43;30.53;;;22.20;73.00;;;;;;5082681;28;20894;-73
2021/08/20 07:40:08;;;;;;;31.43;29.33;;;22.30;72.70;;;;;;5087540;28;20454;-73
2021/08/20 07:42:36;;;;;;;31.20;29.00;;;22.50;72.70;;;;;;5085412;28;20456;-73
2021/08/20 07:45:04;;;;;;;32.57;30.37;;;22.70;71.20;;;;;;5081710;28;20959;-73
2021/08/20 07:47:31;;;;;;;32.87;30.73;;;22.40;71.50;;;;;;5086248;28;20474;-73
2021/08/20 07:49:58;;;;;;;34.67;32.37;;;22.00;72.50;;;;;;5084920;28;20453;-74
2021/08/20 07:52:24;;;;;;;34.70;32.50;;;21.80;73.20;;;;;;5085581;28;20457;-76
2021/08/20 07:54:52;;;;;;;32.87;30.83;;;21.60;73.80;;;;;;5078076;28;20460;-72
2021/08/20 07:57:19;;;;;;;32.00;30.10;;;21.60;73.50;;;;;;5083620;28;20484;-72
2021/08/20 07:59:47;;;;;;;33.80;31.80;;;21.60;73.70;;;;;;5088125;28;20484;-73
2021/08/20 08:02:14;;;;;;;31.70;29.70;;;21.50;74.00;;;;;;5087089;28;20947;-72
2021/08/20 08:04:42;;;;;;;31.87;30.07;;;21.40;74.20;;;;;;5079479;28;20478;-73
2021/08/20 08:07:09;;;;;;;31.60;29.53;;;21.70;73.80;;;;;;5086886;28;20978;-72
2021/08/20 08:09:36;;;;;;;32.27;30.27;;;22.00;73.10;;;;;;5084372;28;20461;-73
2021/08/20 08:12:03;;;;;;;31.93;29.83;;;22.30;72.60;;;;;;5086176;28;20461;-72
2021/08/20 08:14:31;;;;;;;30.60;28.80;;;22.40;71.90;;;;;;5083760;28;20455;-72
2021/08/20 08:16:59;;;;;;;30.47;28.40;;;22.50;70.90;;;;;;5087686;28;20485;-73
2021/08/20 08:19:26;;;;;;;33.67;31.77;;;22.70;70.80;;;;;;5085251;28;20994;-73
2021/08/20 08:21:53;;;;;;;31.47;29.27;;;22.80;69.80;;;;;;5083683;28;20453;-73
2021/08/20 08:24:20;;;;;;;30.70;28.67;;;22.40;70.60;;;;;;5084187;28;20469;-73
2021/08/20 08:26:47;;;;;;;32.83;30.83;;;22.30;71.00;;;;;;5082820;28;20900;-72
2021/08/20 08:29:13;;;;;;;32.97;30.97;;;22.10;71.70;;;;;;5082377;28;20541;-72
2021/08/20 08:31:40;;;;;;;30.50;28.70;;;22.10;71.80;;;;;;5078274;28;20463;-72
2021/08/20 08:34:09;;;;;;;32.03;30.03;;;22.00;72.10;;;;;;5085170;28;20462;-72
2021/08/20 08:36:36;;;;;;;32.37;30.47;;;21.90;71.80;;;;;;5086080;28;20994;-71
2021/08/20 08:39:03;;;;;;;33.80;31.47;;;21.80;72.60;;;;;;5082842;28;20492;-71
2021/08/20 08:41:32;;;;;;;32.97;31.07;;;21.90;72.10;;;;;;5085834;28;21002;-71
2021/08/20 08:44:00;;;;;;;33.03;31.10;;;22.00;72.00;;;;;;5079942;28;20474;-71
2021/08/20 08:46:29;;;;;;;34.87;32.77;;;22.20;71.80;;;;;;5081119;28;20460;-71
2021/08/20 08:48:56;;;;;;;31.93;30.03;;;22.40;71.40;;;;;;5084644;28;20501;-72
2021/08/20 08:51:25;;;;;;;33.27;31.37;;;22.80;70.30;;;;;;5082348;28;20469;-73
2021/08/20 08:53:51;;;;;;;36.30;33.90;;;23.20;69.20;;;;;;5078962;28;20464;-72
2021/08/20 08:56:19;;;;;;;33.13;31.13;;;23.50;68.10;;;;;;5081496;28;20462;-72
2021/08/20 08:58:46;;;;;;;34.20;32.10;;;23.60;67.30;;;;;;5080915;28;20469;-74
2021/08/20 09:01:30;;;;;;;32.77;30.70;;;23.80;66.90;;;;;;5079421;28;20447;-72
2021/08/20 09:04:13;;;;;;;32.53;30.60;;;23.90;66.60;;;;;;5083959;28;20598;-74
2021/08/20 09:06:43;;;;;;;37.10;34.80;;;23.90;65.80;;;;;;5079110;28;20457;-73
2021/08/20 09:09:12;;;;;;;35.93;33.83;;;23.60;67.50;;;;;;5081713;28;20493;-73
2021/08/20 09:11:40;;;;;;;35.00;33.00;;;23.10;68.90;;;;;;5086259;28;20446;-72
2021/08/20 09:14:08;;;;;;;36.23;34.03;;;22.70;70.90;;;;;;5078959;28;20449;-73
2021/08/20 09:16:37;;;;;;;37.83;35.63;;;22.20;72.20;;;;;;5085619;28;20819;-72
2021/08/20 09:19:15;;;;;;;37.37;35.10;;;22.10;72.80;;;;;;5083312;28;20493;-70
2021/08/20 09:21:47;;;;;;;35.53;33.13;;;21.90;73.40;;;;;;5078919;28;20548;-70
2021/08/20 09:24:36;;;;;;;35.17;32.73;;;21.70;74.20;;;;;;5080335;28;20565;-71
2021/08/20 09:27:21;;;;;;;35.13;32.60;;;21.50;73.80;;;;;;5080732;28;21030;-71
2021/08/20 09:30:06;;;;;;;36.70;34.20;;;21.50;73.70;;;;;;5082508;28;20456;-71
2021/08/20 09:32:35;;;;;;;34.47;32.47;;;21.50;73.50;;;;;;5077136;28;20461;-71
2021/08/20 09:35:02;;;;;;;33.70;31.80;;;21.80;73.40;;;;;;5081694;28;20545;-71
2021/08/20 09:37:32;;;;;;;35.13;33.13;;;22.10;72.50;;;;;;5084890;28;20555;-72
2021/08/20 09:40:04;;;;;;;34.77;32.67;;;22.50;71.10;;;;;;5087085;28;20467;-72
2021/08/20 09:42:31;;;;;;;33.70;31.73;;;22.70;70.10;;;;;;5078182;28;20460;-73
2021/08/20 09:45:19;;;;;;;34.77;32.73;;;23.00;69.20;;;;;;5077445;28;20484;-70
2021/08/20 09:47:48;;;;;;;38.10;35.80;;;23.20;68.90;;;;;;5082988;28;20579;-72
2021/08/20 09:50:15;;;;;;;34.97;33.07;;;23.50;67.60;;;;;;5085669;28;21296;-71
2021/08/20 09:52:44;;;;;;;34.37;32.37;;;23.60;67.00;;;;;;5077885;28;20864;-71
2021/08/20 09:55:11;;;;;;;33.80;31.87;;;23.70;66.80;;;;;;5084316;28;20445;-72
2021/08/20 09:57:40;;;;;;;34.50;32.50;;;23.70;66.40;;;;;;5082103;28;20473;-71
2021/08/20 10:00:10;;;;;;;32.70;30.90;;;23.80;65.80;;;;;;5077535;28;20472;-72
2021/08/20 10:02:38;;;;;;;35.37;33.33;;;23.90;66.20;;;;;;5077105;28;20464;-73
2021/08/20 10:05:06;;;;;;;32.87;30.87;;;24.30;65.70;;;;;;5079673;28;20477;-72
2021/08/20 10:07:39;;;;;;;34.40;32.50;;;24.60;65.20;;;;;;5074657;28;20536;-72
2021/08/20 10:10:09;;;;;;;34.23;32.03;;;25.00;63.70;;;;;;5083045;28;20449;-73
2021/08/20 10:12:40;;;;;;;35.63;33.63;;;25.10;62.20;;;;;;5081798;28;20793;-72
2021/08/20 10:15:08;;;;;;;33.90;31.70;;;24.70;61.80;;;;;;5079292;28;20463;-71
2021/08/20 10:17:37;;;;;;;36.00;33.90;;;24.50;63.40;;;;;;5079824;28;20486;-72
2021/08/20 10:20:05;;;;;;;34.90;32.50;;;24.10;65.20;;;;;;5080008;28;20465;-71
2021/08/20 10:22:32;;;;;;;34.77;32.77;;;23.70;66.40;;;;;;5074956;28;20485;-71
2021/08/20 10:25:02;;;;;;;33.20;31.30;;;23.30;67.90;;;;;;5077898;28;20512;-71
2021/08/20 10:27:36;;;;;;;33.33;31.20;;;23.20;68.20;;;;;;5079009;28;20469;-73
2021/08/20 10:30:05;;;;;;;32.40;30.50;;;23.10;67.80;;;;;;5078358;28;20491;-73
2021/08/20 10:32:32;;;;;;;36.47;34.37;;;23.10;68.30;;;;;;5075036;28;20458;-74
2021/08/20 10:34:59;;;;;;;35.00;32.90;;;23.20;67.90;;;;;;5080580;28;20472;-73
2021/08/20 10:37:28;;;;;;;36.17;34.07;;;23.10;68.00;;;;;;5083505;28;20492;-73
2021/08/20 10:39:59;;;;;;;34.97;32.93;;;23.00;67.80;;;;;;5081532;28;20464;-74
2021/08/20 10:42:40;;;;;;;32.50;30.70;;;23.10;67.70;;;;;;5083077;28;20465;-72
2021/08/20 10:45:09;;;;;;;35.20;33.30;;;23.00;67.20;;;;;;5080752;28;20563;-72
2021/08/20 10:47:37;;;;;;;33.83;31.47;;;23.20;66.30;;;;;;5083214;28;20474;-72
2021/08/20 10:50:10;;;;;;;33.17;31.30;;;23.30;65.70;;;;;;5086647;28;20461;-71
2021/08/20 10:52:39;;;;;;;35.17;33.17;;;23.50;65.70;;;;;;5082457;28;20537;-72
2021/08/20 10:55:25;;;;;;;31.73;30.03;;;23.80;65.10;;;;;;5089949;28;20459;-72
2021/08/20 10:58:11;;;;;;;34.13;32.23;;;24.00;64.10;;;;;;5084645;28;20481;-72
2021/08/20 11:00:43;;;;;;;34.03;31.20;;;24.10;63.40;;;;;;5084947;28;20457;-72
2021/08/20 11:03:11;;;;;;;33.37;31.43;;;24.20;63.10;;;;;;5085871;28;20457;-73
2021/08/20 11:05:46;;;;;;;35.80;33.60;;;24.30;62.70;;;;;;5086562;28;20477;-72
2021/08/20 11:08:43;;;;;;;35.93;33.63;;;24.40;61.60;;;;;;5084348;28;20490;-72
2021/08/20 11:11:44;;;;;;;32.73;30.77;;;24.70;61.80;;;;;;5084522;28;20471;-72
2021/08/20 11:14:39;;;;;;;33.23;30.93;;;25.10;61.00;;;;;;5078247;28;20454;-71
2021/08/20 11:17:07;;;;;;;34.30;32.20;;;25.30;59.70;;;;;;5036308;28;20487;-72
2021/08/20 11:19:55;;;;;;;36.07;34.07;;;25.40;59.90;;;;;;5088174;28;21074;-70
2021/08/20 11:22:28;;;;;;;34.17;32.07;;;25.10;58.90;;;;;;5087096;28;20445;-70
2021/08/20 11:25:20;;;;;;;35.70;33.70;;;24.50;60.30;;;;;;5083527;28;20478;-71
2021/08/20 11:28:02;;;;;;;34.10;32.20;;;24.20;60.90;;;;;;5085902;28;20511;-70
2021/08/20 11:30:33;;;;;;;34.97;33.03;;;24.00;61.50;;;;;;5088909;28;20457;-70
2021/08/20 11:33:18;;;;;;;34.00;32.10;;;23.90;61.40;;;;;;5084926;28;20457;-70
2021/08/20 11:35:48;;;;;;;37.57;35.50;;;24.00;61.10;;;;;;5082227;28;20449;-70
2021/08/20 11:38:28;;;;;;;33.70;31.57;;;24.10;60.60;;;;;;5082177;28;20565;-72
2021/08/20 11:40:58;;;;;;;32.43;30.70;;;24.30;60.30;;;;;;5085212;28;20518;-71
2021/08/20 11:43:27;;;;;;;33.67;31.73;;;24.60;59.30;;;;;;5086017;28;21029;-72
2021/08/20 11:46:00;;;;;;;35.27;33.30;;;24.60;59.20;;;;;;5081880;28;21021;-71
2021/08/20 11:48:28;;;;;;;32.90;30.80;;;24.70;59.00;;;;;;5084458;28;20480;-71
2021/08/20 11:50:55;;;;;;;33.57;31.53;;;24.90;58.10;;;;;;5082809;28;20487;-71
2021/08/20 11:53:23;;;;;;;34.97;32.67;;;25.20;57.10;;;;;;5079028;28;20457;-71
2021/08/20 11:55:51;;;;;;;32.10;30.27;;;25.40;57.10;;;;;;5083806;28;20457;-71
2021/08/20 11:58:28;;;;;;;31.87;30.00;;;25.50;56.80;;;;;;5085515;28;21012;-70
2021/08/20 12:00:56;;;;;;;35.17;33.27;;;25.80;56.20;;;;;;5081018;28;20453;-72
2021/08/20 12:03:23;;;;;;;37.87;35.70;;;25.90;55.50;;;;;;5082982;28;20457;-72
2021/08/20 12:05:50;;;;;;;34.97;33.07;;;25.90;56.00;;;;;;5077616;28;20569;-72
2021/08/20 12:08:19;;;;;;;33.03;31.13;;;25.70;56.80;;;;;;5080610;28;21012;-71
2021/08/20 12:10:47;;;;;;;38.00;35.87;;;25.50;57.30;;;;;;5082407;28;20461;-71
2021/08/20 12:13:15;;;;;;;38.47;36.17;;;25.30;57.50;;;;;;5085858;28;20458;-72
2021/08/20 12:15:42;;;;;;;41.40;39.07;;;25.10;58.00;;;;;;5080549;28;20457;-72
2021/08/20 12:18:23;;;;;;;39.67;37.47;;;24.90;58.00;;;;;;5080607;28;20477;-72
2021/08/20 12:20:51;;;;;;;39.07;36.77;;;25.10;57.40;;;;;;5074046;28;20955;-72
2021/08/20 12:23:18;;;;;;;40.00;37.70;;;25.40;57.20;;;;;;5086103;28;20469;-70
2021/08/20 12:25:46;;;;;;;36.97;34.97;;;25.30;57.20;;;;;;5084044;28;20477;-72
2021/08/20 12:28:14;;;;;;;36.10;33.90;;;25.50;56.70;;;;;;5085654;28;21020;-73
2021/08/20 12:30:43;;;;;;;37.97;35.97;;;25.80;56.20;;;;;;5080514;28;20449;-72
2021/08/20 12:33:10;;;;;;;35.50;33.50;;;25.70;56.60;;;;;;5080123;28;20679;-72
2021/08/20 12:35:39;;;;;;;40.23;38.00;;;25.50;56.50;;;;;;5082145;28;20462;-72
2021/08/20 12:38:11;;;;;;;36.53;34.60;;;25.10;57.00;;;;;;5083859;28;20576;-71
2021/08/20 12:40:43;;;;;;;41.23;38.93;;;24.80;57.80;;;;;;5080300;28;20463;-71